Time;durP1;ratioP1;P1;durP2;ratioP2;P2;SDS_P1;SDS_P2;PMS_P1;PMS_P2;Temp;Humidity;BMP_temperature;BMP_pressure;BME280_temperature;BME280_humidity;BME280_pressure;Samples;Min_cycle;Max_cycle;Signal;HPM_P1;HPM_P2
2023/12/25 00:01:16;;;;;;;4.33;2.10;;;15.20;99.90;;;;;;5054674;28;20343;-6
2023/12/25 00:03:42;;;;;;;3.47;2.20;;;15.20;99.90;;;;;;5072669;28;20460;-7
2023/12/25 00:06:07;;;;;;;3.70;2.07;;;15.20;99.90;;;;;;5071465;28;20274;-6
2023/12/25 00:08:34;;;;;;;2.50;1.83;;;15.20;99.90;;;;;;5073684;28;20241;-7
2023/12/25 00:11:00;;;;;;;3.50;2.63;;;15.20;99.90;;;;;;5073788;28;20615;-6
2023/12/25 00:13:26;;;;;;;3.23;1.90;;;15.20;99.90;;;;;;5055938;28;20180;-6
2023/12/25 00:15:51;;;;;;;4.30;2.10;;;15.20;99.90;;;;;;5075772;28;20178;-7
2023/12/25 00:18:17;;;;;;;3.83;2.10;;;15.20;99.90;;;;;;5075555;28;20189;-6
2023/12/25 00:20:43;;;;;;;3.07;2.00;;;15.20;99.90;;;;;;5074923;28;20191;-6
2023/12/25 00:23:09;;;;;;;3.50;1.80;;;15.20;99.90;;;;;;5074339;28;20600;-6
2023/12/25 00:25:34;;;;;;;3.50;2.13;;;15.20;99.90;;;;;;5074053;28;20273;-7
2023/12/25 00:28:00;;;;;;;3.00;1.60;;;15.20;99.90;;;;;;5074308;28;20568;-6
2023/12/25 00:30:26;;;;;;;3.67;2.00;;;15.20;99.90;;;;;;5074199;28;20186;-6
2023/12/25 00:32:52;;;;;;;2.93;1.60;;;15.10;99.90;;;;;;5055718;28;20174;-7
2023/12/25 00:35:17;;;;;;;3.10;1.83;;;15.20;99.90;;;;;;5087853;28;20174;-6
2023/12/25 00:37:43;;;;;;;2.27;1.73;;;15.20;99.90;;;;;;5073001;28;20260;-6
2023/12/25 00:40:09;;;;;;;3.37;2.07;;;15.20;99.90;;;;;;5073719;28;20231;-6
2023/12/25 00:42:35;;;;;;;3.07;1.70;;;15.20;99.90;;;;;;5089926;28;20172;-8
2023/12/25 00:45:01;;;;;;;2.57;1.77;;;15.20;99.90;;;;;;5074062;28;20183;-6
2023/12/25 00:47:26;;;;;;;4.03;1.97;;;15.20;99.90;;;;;;5074059;28;20547;-6
2023/12/25 00:49:52;;;;;;;3.20;2.10;;;15.20;99.90;;;;;;5074359;28;20265;-6
2023/12/25 00:52:19;;;;;;;4.10;2.17;;;15.20;99.90;;;;;;5057399;28;20216;-6
2023/12/25 00:54:45;;;;;;;3.20;1.90;;;15.20;99.90;;;;;;5057253;28;20176;-7
2023/12/25 00:57:11;;;;;;;4.67;2.07;;;15.20;99.90;;;;;;5074542;28;20549;-6
2023/12/25 00:59:37;;;;;;;3.60;2.00;;;15.20;99.90;;;;;;5074552;28;20180;-6
2023/12/25 01:02:02;;;;;;;3.37;2.10;;;15.20;99.90;;;;;;5073735;28;20202;-6
2023/12/25 01:04:28;;;;;;;2.90;1.83;;;15.20;99.90;;;;;;5073864;28;20695;-6
2023/12/25 01:06:54;;;;;;;3.03;1.90;;;15.20;99.90;;;;;;5059021;28;20259;-7
2023/12/25 01:09:20;;;;;;;2.90;1.90;;;15.20;99.90;;;;;;5076550;28;20256;-6
2023/12/25 01:11:45;;;;;;;3.07;1.90;;;15.20;99.90;;;;;;5056939;28;20225;-6
2023/12/25 01:14:11;;;;;;;2.67;1.60;;;15.20;99.90;;;;;;5074514;28;20184;-6
2023/12/25 01:16:38;;;;;;;2.77;1.73;;;15.20;99.90;;;;;;5056815;28;20177;-7
2023/12/25 01:19:04;;;;;;;2.77;1.60;;;15.20;99.90;;;;;;5056385;28;20191;-6
2023/12/25 01:21:32;;;;;;;2.63;1.90;;;15.20;99.90;;;;;;5056862;28;20179;-6
2023/12/25 01:23:58;;;;;;;3.00;1.87;;;15.20;99.90;;;;;;5073977;28;20170;-7
2023/12/25 01:26:25;;;;;;;2.83;1.60;;;15.20;99.90;;;;;;5074510;28;20205;-6
2023/12/25 01:28:51;;;;;;;2.13;1.53;;;15.20;99.90;;;;;;5072671;28;20421;-6
2023/12/25 01:31:17;;;;;;;3.00;1.43;;;15.20;99.90;;;;;;5074661;28;20176;-6
2023/12/25 01:33:43;;;;;;;3.10;1.80;;;15.20;99.90;;;;;;5054309;28;20175;-6
2023/12/25 01:36:09;;;;;;;2.30;1.40;;;15.20;99.90;;;;;;5073363;28;20175;-6
2023/12/25 01:38:35;;;;;;;3.47;1.70;;;15.20;99.90;;;;;;5056208;28;20507;-6
2023/12/25 01:41:00;;;;;;;3.37;1.40;;;15.20;99.90;;;;;;5072381;28;20538;-7
2023/12/25 01:43:26;;;;;;;2.57;1.53;;;15.20;99.90;;;;;;5088165;28;20183;-6
2023/12/25 01:45:52;;;;;;;3.87;1.50;;;15.20;99.90;;;;;;5072743;28;20214;-6
2023/12/25 01:48:18;;;;;;;1.70;1.17;;;15.20;99.90;;;;;;5074058;28;20179;-7
2023/12/25 01:50:44;;;;;;;1.83;1.40;;;15.20;99.90;;;;;;5057642;28;20427;-6
2023/12/25 01:53:09;;;;;;;1.97;1.20;;;15.20;99.90;;;;;;5057095;28;20269;-6
2023/12/25 01:55:36;;;;;;;1.77;1.10;;;15.20;99.90;;;;;;5056667;28;20327;-6
2023/12/25 01:58:02;;;;;;;2.27;1.20;;;15.20;99.90;;;;;;5057753;28;20175;-6
2023/12/25 02:00:28;;;;;;;1.67;1.33;;;15.20;99.90;;;;;;5073759;28;20417;-7
2023/12/25 02:02:53;;;;;;;2.37;1.20;;;15.20;99.90;;;;;;5056834;28;20240;-6
2023/12/25 02:05:19;;;;;;;3.17;1.70;;;15.20;99.90;;;;;;5090203;28;20584;-6
2023/12/25 02:07:47;;;;;;;1.77;1.10;;;15.20;99.90;;;;;;5056334;28;20273;-6
2023/12/25 02:10:29;;;;;;;1.97;1.17;;;15.20;99.90;;;;;;5074755;28;20158;-6
2023/12/25 02:12:55;;;;;;;1.80;1.37;;;15.20;99.90;;;;;;5074542;28;20179;-6
2023/12/25 02:15:22;;;;;;;1.93;1.10;;;15.10;99.90;;;;;;5056181;28;20176;-6
2023/12/25 02:17:50;;;;;;;1.53;1.10;;;15.20;99.90;;;;;;5075494;28;20269;-6
2023/12/25 02:20:15;;;;;;;1.53;1.10;;;15.10;99.90;;;;;;5075293;28;20243;-6
2023/12/25 02:22:41;;;;;;;1.27;1.00;;;15.10;99.90;;;;;;5090931;28;20270;-6
2023/12/25 02:25:28;;;;;;;2.23;1.20;;;15.10;99.90;;;;;;5075499;28;20186;-6
2023/12/25 02:27:54;;;;;;;1.43;1.00;;;15.10;99.90;;;;;;5058017;28;20176;-6
2023/12/25 02:30:20;;;;;;;1.30;0.97;;;15.10;99.90;;;;;;5074657;28;20451;-6
2023/12/25 02:32:46;;;;;;;1.47;0.97;;;15.10;99.90;;;;;;5075354;28;20173;-6
2023/12/25 02:35:12;;;;;;;1.50;0.90;;;15.10;99.90;;;;;;5074836;28;20165;-7
2023/12/25 02:37:38;;;;;;;1.57;0.93;;;15.10;99.90;;;;;;5057816;28;20176;-7
2023/12/25 02:40:05;;;;;;;1.00;0.73;;;15.10;99.90;;;;;;5057561;28;20437;-7
2023/12/25 02:42:31;;;;;;;1.13;0.90;;;15.10;99.90;;;;;;5075082;28;20282;-7
2023/12/25 02:44:56;;;;;;;1.37;0.87;;;15.10;99.90;;;;;;5057621;28;21165;-6
2023/12/25 02:47:22;;;;;;;1.43;0.87;;;15.10;99.90;;;;;;5056470;28;20225;-6
2023/12/25 02:49:48;;;;;;;0.80;0.80;;;15.10;99.90;;;;;;5075003;28;20437;-6
2023/12/25 02:52:14;;;;;;;1.13;0.90;;;15.10;99.90;;;;;;5074196;28;20168;-6
2023/12/25 02:54:39;;;;;;;1.00;0.70;;;15.10;99.90;;;;;;5090100;28;20177;-6
2023/12/25 02:57:05;;;;;;;0.80;0.80;;;15.10;99.90;;;;;;5074291;28;20328;-7
2023/12/25 02:59:31;;;;;;;0.80;0.80;;;15.10;99.90;;;;;;5073082;28;20181;-6
2023/12/25 03:01:56;;;;;;;1.47;0.93;;;15.10;99.90;;;;;;5073751;28;20446;-6
2023/12/25 03:04:22;;;;;;;2.13;0.73;;;15.10;99.90;;;;;;5075604;28;20180;-6
2023/12/25 03:06:48;;;;;;;1.03;0.87;;;15.10;99.90;;;;;;5074533;28;20669;-6
2023/12/25 03:09:14;;;;;;;0.70;0.70;;;15.10;99.90;;;;;;5073764;28;20171;-7
2023/12/25 03:11:39;;;;;;;1.40;0.70;;;15.10;99.90;;;;;;5073362;28;20654;-6
2023/12/25 03:14:05;;;;;;;0.80;0.80;;;15.10;99.90;;;;;;5089715;28;20221;-6
2023/12/25 03:16:31;;;;;;;1.30;0.90;;;15.10;99.90;;;;;;5055432;28;20251;-6
2023/12/25 03:18:57;;;;;;;1.97;0.90;;;15.10;99.90;;;;;;5053398;28;20250;-7
2023/12/25 03:21:22;;;;;;;0.97;0.70;;;15.10;99.90;;;;;;5072451;28;20168;-6
2023/12/25 03:23:48;;;;;;;1.07;0.90;;;15.10;99.90;;;;;;5055125;28;20172;-6
2023/12/25 03:26:14;;;;;;;0.90;0.80;;;15.10;99.90;;;;;;5088311;28;20201;-6
2023/12/25 03:28:40;;;;;;;1.20;0.80;;;15.10;99.90;;;;;;5054981;28;20286;-6
2023/12/25 03:31:06;;;;;;;1.17;0.70;;;15.10;99.90;;;;;;5055166;28;20184;-8
2023/12/25 03:33:32;;;;;;;0.70;0.70;;;15.10;99.90;;;;;;5055939;28;20169;-6
2023/12/25 03:35:58;;;;;;;0.67;0.67;;;15.10;99.90;;;;;;5055244;28;20443;-6
2023/12/25 03:38:24;;;;;;;0.97;0.80;;;15.10;99.90;;;;;;5089900;28;20178;-7
2023/12/25 03:40:50;;;;;;;0.77;0.73;;;15.10;99.90;;;;;;5057370;28;20507;-6
2023/12/25 03:43:15;;;;;;;0.87;0.70;;;15.10;99.90;;;;;;5076884;28;20444;-7
2023/12/25 03:45:41;;;;;;;0.83;0.80;;;15.10;99.90;;;;;;5077172;28;20186;-6
2023/12/25 03:48:07;;;;;;;0.90;0.70;;;15.10;99.90;;;;;;5059674;28;20178;-6
2023/12/25 03:50:32;;;;;;;0.90;0.90;;;15.10;99.90;;;;;;5059832;28;20180;-7
2023/12/25 03:52:58;;;;;;;0.57;0.53;;;15.10;99.90;;;;;;5076511;28;20205;-6
2023/12/25 03:55:24;;;;;;;0.70;0.60;;;15.10;99.90;;;;;;5076683;28;20176;-6
2023/12/25 03:57:50;;;;;;;0.70;0.70;;;15.10;99.90;;;;;;5076465;28;20220;-7
2023/12/25 04:00:16;;;;;;;0.97;0.80;;;15.10;99.90;;;;;;5076694;28;20440;-6
2023/12/25 04:02:41;;;;;;;0.70;0.70;;;15.10;99.90;;;;;;5077059;28;20452;-6
2023/12/25 04:05:09;;;;;;;0.70;0.70;;;15.10;99.90;;;;;;5075955;28;20465;-6
2023/12/25 04:07:35;;;;;;;0.67;0.60;;;15.10;99.90;;;;;;5077120;28;20194;-6
2023/12/25 04:10:02;;;;;;;0.57;0.57;;;15.10;99.90;;;;;;5076142;28;20382;-7
2023/12/25 04:12:28;;;;;;;0.50;0.50;;;15.10;99.90;;;;;;5077379;28;20169;-6
2023/12/25 04:14:53;;;;;;;0.53;0.53;;;15.10;99.90;;;;;;5075586;28;20182;-6
2023/12/25 04:17:19;;;;;;;0.93;0.60;;;15.10;99.90;;;;;;5059281;28;20183;-6
2023/12/25 04:19:45;;;;;;;0.50;0.50;;;15.10;99.90;;;;;;5058577;28;20182;-7
2023/12/25 04:22:13;;;;;;;0.60;0.60;;;15.10;99.90;;;;;;5076601;28;20178;-6
2023/12/25 04:24:38;;;;;;;0.73;0.53;;;15.10;99.90;;;;;;5075715;28;20164;-7
2023/12/25 04:27:04;;;;;;;0.40;0.40;;;15.10;99.90;;;;;;5058397;28;20206;-6
2023/12/25 04:29:30;;;;;;;0.53;0.53;;;15.10;99.90;;;;;;5077906;28;20539;-6
2023/12/25 04:31:56;;;;;;;0.60;0.60;;;15.10;99.90;;;;;;5076982;28;20181;-7
2023/12/25 04:34:22;;;;;;;1.20;0.70;;;15.10;99.90;;;;;;5076299;28;20244;-6
2023/12/25 04:36:47;;;;;;;0.83;0.50;;;15.10;99.90;;;;;;5075580;28;20290;-6
2023/12/25 04:39:13;;;;;;;0.50;0.50;;;15.10;99.90;;;;;;5077372;28;20171;-6
2023/12/25 04:41:39;;;;;;;0.70;0.70;;;15.10;99.90;;;;;;5075955;28;20531;-7
2023/12/25 04:44:04;;;;;;;0.60;0.40;;;15.10;99.90;;;;;;5076016;28;20183;-7
2023/12/25 04:46:30;;;;;;;0.60;0.60;;;15.10;99.90;;;;;;5056477;28;20210;-6
2023/12/25 04:48:56;;;;;;;0.60;0.60;;;15.10;99.90;;;;;;5057693;28;20179;-6
2023/12/25 04:51:21;;;;;;;0.43;0.43;;;15.10;99.90;;;;;;5090999;28;20176;-6
2023/12/25 04:53:47;;;;;;;0.43;0.43;;;15.20;99.90;;;;;;5074125;28;20568;-7
2023/12/25 04:56:13;;;;;;;0.97;0.53;;;15.20;99.90;;;;;;5089466;28;20457;-6
2023/12/25 04:58:39;;;;;;;0.60;0.60;;;15.20;99.90;;;;;;5074382;28;20175;-6
2023/12/25 05:01:05;;;;;;;0.70;0.50;;;15.20;99.90;;;;;;5091805;28;20193;-6
2023/12/25 05:03:31;;;;;;;0.70;0.70;;;15.20;99.90;;;;;;5076515;28;20238;-6
2023/12/25 05:05:57;;;;;;;0.50;0.50;;;15.20;99.90;;;;;;5059464;28;20214;-6
2023/12/25 05:08:22;;;;;;;1.33;0.50;;;15.20;99.90;;;;;;5075247;28;20164;-7
2023/12/25 05:10:48;;;;;;;1.20;0.50;;;15.20;99.90;;;;;;5076783;28;20555;-6
2023/12/25 05:13:14;;;;;;;0.40;0.40;;;15.20;99.90;;;;;;5059182;28;20225;-6
2023/12/25 05:15:40;;;;;;;0.60;0.60;;;15.20;99.90;;;;;;5076852;28;20177;-6
2023/12/25 05:18:06;;;;;;;1.23;0.60;;;15.20;99.90;;;;;;5076269;28;20238;-7
2023/12/25 05:20:32;;;;;;;0.60;0.57;;;15.20;99.90;;;;;;5075889;28;20442;-6
2023/12/25 05:22:57;;;;;;;0.47;0.47;;;15.20;99.90;;;;;;5075430;28;20221;-6
2023/12/25 05:25:23;;;;;;;0.67;0.50;;;15.20;99.90;;;;;;5058000;28;20168;-6
2023/12/25 05:27:49;;;;;;;0.50;0.50;;;15.20;99.90;;;;;;5074134;28;20206;-6
2023/12/25 05:30:15;;;;;;;0.50;0.50;;;15.20;99.90;;;;;;5090984;28;20446;-6
2023/12/25 05:32:40;;;;;;;0.40;0.40;;;15.20;99.90;;;;;;5056231;28;20646;-6
2023/12/25 05:35:06;;;;;;;0.70;0.47;;;15.20;99.90;;;;;;5056393;28;20647;-6
2023/12/25 05:37:32;;;;;;;0.50;0.50;;;15.20;99.90;;;;;;5055913;28;20469;-6
2023/12/25 05:39:59;;;;;;;0.47;0.40;;;15.20;99.90;;;;;;5091129;28;20619;-7
2023/12/25 05:42:25;;;;;;;0.47;0.47;;;15.20;99.90;;;;;;5056180;28;20373;-6
2023/12/25 05:44:50;;;;;;;0.50;0.50;;;15.20;99.90;;;;;;5074923;28;20175;-6
2023/12/25 05:47:16;;;;;;;1.30;0.60;;;15.20;99.90;;;;;;5090958;28;20204;-6
2023/12/25 05:49:41;;;;;;;0.50;0.50;;;15.20;99.90;;;;;;5089902;28;20184;-6
2023/12/25 05:52:07;;;;;;;0.50;0.50;;;15.20;99.90;;;;;;5056448;28;20163;-6
2023/12/25 05:54:33;;;;;;;0.60;0.60;;;15.20;99.90;;;;;;5056205;28;20594;-6
2023/12/25 05:56:59;;;;;;;0.60;0.50;;;15.20;99.90;;;;;;5090784;28;20175;-6
2023/12/25 05:59:25;;;;;;;0.50;0.50;;;15.20;99.90;;;;;;5074617;28;20168;-6
2023/12/25 06:01:51;;;;;;;0.47;0.47;;;15.20;99.90;;;;;;5090573;28;20193;-6
2023/12/25 06:04:17;;;;;;;0.50;0.50;;;15.20;99.90;;;;;;5055568;28;20168;-6
2023/12/25 06:06:44;;;;;;;0.40;0.40;;;15.10;99.90;;;;;;5089020;28;20207;-7
2023/12/25 06:09:10;;;;;;;0.50;0.50;;;15.10;99.90;;;;;;5074069;28;20676;-6
2023/12/25 06:11:36;;;;;;;0.60;0.60;;;15.10;99.90;;;;;;5090736;28;20693;-6
2023/12/25 06:14:03;;;;;;;0.40;0.40;;;15.10;99.90;;;;;;5057098;28;20182;-7
2023/12/25 06:16:29;;;;;;;1.60;0.50;;;15.10;99.90;;;;;;5074347;28;20468;-6
2023/12/25 06:18:55;;;;;;;0.93;0.53;;;15.10;99.90;;;;;;5090985;28;20178;-6
2023/12/25 06:21:20;;;;;;;0.40;0.40;;;15.10;99.90;;;;;;5073358;28;20176;-7
2023/12/25 06:23:46;;;;;;;0.30;0.30;;;15.10;99.90;;;;;;5073345;28;20183;-6
2023/12/25 06:26:12;;;;;;;0.40;0.40;;;15.10;99.90;;;;;;5073093;28;20230;-6
2023/12/25 06:28:38;;;;;;;0.50;0.50;;;15.10;99.90;;;;;;5073625;28;20581;-8
2023/12/25 06:31:03;;;;;;;0.40;0.40;;;15.10;99.90;;;;;;5055912;28;20174;-6
2023/12/25 06:33:29;;;;;;;0.40;0.40;;;15.10;99.90;;;;;;5074175;28;20608;-7
2023/12/25 06:35:55;;;;;;;0.40;0.40;;;15.10;99.90;;;;;;5074415;28;20174;-6
2023/12/25 06:38:20;;;;;;;0.67;0.40;;;15.10;99.90;;;;;;5075556;28;20175;-6
2023/12/25 06:40:46;;;;;;;0.40;0.40;;;15.10;99.90;;;;;;5074502;28;20241;-6
2023/12/25 06:43:13;;;;;;;0.40;0.40;;;15.20;99.90;;;;;;5089375;28;20173;-6
2023/12/25 06:45:39;;;;;;;0.63;0.50;;;15.20;99.90;;;;;;5056075;28;20185;-6
2023/12/25 06:48:05;;;;;;;1.00;0.43;;;15.20;99.90;;;;;;5073106;28;20471;-6
2023/12/25 06:50:30;;;;;;;0.30;0.30;;;15.20;99.90;;;;;;5054938;28;20164;-6
2023/12/25 06:52:57;;;;;;;0.43;0.43;;;15.20;99.90;;;;;;5088312;28;20177;-6
2023/12/25 06:55:23;;;;;;;0.50;0.50;;;15.20;99.90;;;;;;5054303;28;20542;-6
2023/12/25 06:57:48;;;;;;;0.40;0.40;;;15.20;99.90;;;;;;5073106;28;20208;-6
2023/12/25 07:00:14;;;;;;;0.47;0.47;;;15.20;99.90;;;;;;5073281;28;20206;-6
2023/12/25 07:02:40;;;;;;;0.50;0.50;;;15.20;99.90;;;;;;5054131;28;20562;-6
2023/12/25 07:05:06;;;;;;;0.40;0.40;;;15.20;99.90;;;;;;5072744;28;20180;-6
2023/12/25 07:07:32;;;;;;;0.43;0.43;;;15.20;99.90;;;;;;5055844;28;20205;-6
2023/12/25 07:09:57;;;;;;;0.50;0.50;;;15.20;99.90;;;;;;5073549;28;20179;-6
2023/12/25 07:12:23;;;;;;;0.40;0.40;;;15.20;99.90;;;;;;5074900;28;20254;-6
2023/12/25 07:14:52;;;;;;;0.50;0.50;;;15.20;99.90;;;;;;5058104;28;20184;-6
2023/12/25 07:17:18;;;;;;;0.40;0.40;;;15.10;99.90;;;;;;5094270;28;20258;-7
2023/12/25 07:19:44;;;;;;;0.50;0.50;;;15.20;99.90;;;;;;5077983;28;20262;-6
2023/12/25 07:22:11;;;;;;;0.50;0.43;;;15.10;99.90;;;;;;5093682;28;20188;-6
2023/12/25 07:24:37;;;;;;;0.30;0.30;;;15.10;99.90;;;;;;5093042;28;20256;-6
2023/12/25 07:27:04;;;;;;;0.40;0.40;;;15.10;99.90;;;;;;5059317;28;20533;-6
2023/12/25 07:29:30;;;;;;;0.40;0.40;;;15.10;99.90;;;;;;5059736;28;20252;-6
2023/12/25 07:31:57;;;;;;;0.57;0.57;;;15.10;99.90;;;;;;5076353;28;20461;-6
2023/12/25 07:34:22;;;;;;;0.40;0.40;;;15.10;99.90;;;;;;5076681;28;20173;-8
2023/12/25 07:36:49;;;;;;;0.60;0.50;;;15.10;99.90;;;;;;5076494;28;20193;-7
2023/12/25 07:39:15;;;;;;;0.30;0.30;;;15.10;99.90;;;;;;5091555;28;20173;-7
2023/12/25 07:41:45;;;;;;;0.50;0.50;;;15.10;99.90;;;;;;5059384;28;20240;-8
2023/12/25 07:44:13;;;;;;;0.57;0.50;;;15.10;99.90;;;;;;5077289;28;20170;-6
2023/12/25 07:46:39;;;;;;;0.40;0.40;;;15.10;99.90;;;;;;5092465;28;20363;-6
2023/12/25 07:49:05;;;;;;;0.40;0.40;;;15.10;99.90;;;;;;5059751;28;20261;-6
2023/12/25 07:51:31;;;;;;;0.40;0.40;;;15.10;99.90;;;;;;5077867;28;20255;-6
2023/12/25 07:53:56;;;;;;;0.40;0.40;;;15.10;99.90;;;;;;5059798;28;20237;-6
2023/12/25 07:56:22;;;;;;;0.60;0.43;;;15.10;99.90;;;;;;5093238;28;20596;-6
2023/12/25 07:58:48;;;;;;;0.30;0.30;;;15.00;99.90;;;;;;5060193;28;20330;-6
2023/12/25 08:01:14;;;;;;;0.50;0.50;;;15.00;99.90;;;;;;5092880;28;20195;-6
2023/12/25 08:03:39;;;;;;;0.43;0.43;;;15.00;99.90;;;;;;5077302;28;20268;-6
2023/12/25 08:06:07;;;;;;;0.67;0.43;;;15.00;99.90;;;;;;5077563;28;20197;-6
2023/12/25 08:08:33;;;;;;;0.43;0.40;;;15.00;99.90;;;;;;5076420;28;20166;-6
2023/12/25 08:10:58;;;;;;;0.50;0.30;;;15.00;99.90;;;;;;5092971;28;20176;-6
2023/12/25 08:13:24;;;;;;;0.50;0.50;;;15.00;99.90;;;;;;5075401;28;20460;-7
2023/12/25 08:15:50;;;;;;;1.93;0.57;;;15.10;99.90;;;;;;5058690;28;20242;-7
2023/12/25 08:18:16;;;;;;;0.40;0.40;;;15.10;99.90;;;;;;5077000;28;20539;-6
2023/12/25 08:20:41;;;;;;;0.50;0.50;;;15.10;99.90;;;;;;5075082;28;20164;-6
2023/12/25 08:23:07;;;;;;;0.50;0.50;;;15.10;99.90;;;;;;5092061;28;20265;-6
2023/12/25 08:25:33;;;;;;;0.50;0.50;;;15.10;99.90;;;;;;5091304;28;20371;-7
2023/12/25 08:27:58;;;;;;;1.40;0.40;;;15.20;99.90;;;;;;5074721;28;20210;-6
2023/12/25 08:30:24;;;;;;;0.83;0.40;;;15.20;99.90;;;;;;5075288;28;20178;-6
2023/12/25 08:32:50;;;;;;;0.40;0.40;;;15.20;99.90;;;;;;5069911;28;20527;-6
2023/12/25 08:35:16;;;;;;;0.70;0.50;;;15.20;99.90;;;;;;5060330;28;20497;-6
2023/12/25 08:37:41;;;;;;;0.33;0.33;;;15.20;99.90;;;;;;5076820;28;20170;-6
2023/12/25 08:40:07;;;;;;;0.40;0.40;;;15.20;99.90;;;;;;5076979;28;20472;-7
2023/12/25 08:42:33;;;;;;;0.30;0.30;;;15.20;99.90;;;;;;5076722;28;20517;-7
2023/12/25 08:44:59;;;;;;;0.60;0.40;;;15.20;99.90;;;;;;5091882;28;20189;-6
2023/12/25 08:47:26;;;;;;;1.43;0.43;;;15.20;99.90;;;;;;5057632;28;20474;-6
2023/12/25 08:49:53;;;;;;;0.60;0.60;;;15.20;99.90;;;;;;5076425;28;20174;-7
2023/12/25 08:52:19;;;;;;;0.20;0.20;;;15.20;99.90;;;;;;5076266;28;20242;-6
2023/12/25 08:54:45;;;;;;;0.40;0.40;;;15.20;99.90;;;;;;5074305;28;20199;-6
2023/12/25 08:57:11;;;;;;;0.40;0.40;;;15.20;99.90;;;;;;5074773;28;20169;-6
2023/12/25 08:59:37;;;;;;;0.63;0.60;;;15.20;99.90;;;;;;5074889;28;20459;-7
2023/12/25 09:02:02;;;;;;;0.33;0.33;;;15.20;99.90;;;;;;5074734;28;20581;-6
2023/12/25 09:04:28;;;;;;;0.30;0.30;;;15.20;99.90;;;;;;5075383;28;20173;-7
2023/12/25 09:06:54;;;;;;;0.57;0.50;;;15.20;99.90;;;;;;5074386;28;20697;-6
2023/12/25 09:09:21;;;;;;;0.50;0.50;;;15.20;99.90;;;;;;5074139;28;20190;-6
2023/12/25 09:11:48;;;;;;;0.30;0.30;;;15.20;99.90;;;;;;5072048;28;20507;-6
2023/12/25 09:14:14;;;;;;;0.40;0.40;;;15.20;99.90;;;;;;5073025;28;20178;-7
2023/12/25 09:16:39;;;;;;;0.40;0.40;;;15.20;99.90;;;;;;5071118;28;20249;-7
2023/12/25 09:19:05;;;;;;;0.50;0.50;;;15.20;99.90;;;;;;5072541;28;20179;-6
2023/12/25 09:21:37;;;;;;;3.80;0.60;;;15.20;99.90;;;;;;5070788;28;20178;-7
2023/12/25 09:24:03;;;;;;;0.97;0.50;;;15.20;99.90;;;;;;5094933;28;20169;-6
2023/12/25 09:26:29;;;;;;;2.17;0.60;;;15.20;99.90;;;;;;5101439;28;20203;-6
2023/12/25 09:28:55;;;;;;;0.77;0.50;;;15.20;99.90;;;;;;5118515;28;20243;-6
2023/12/25 09:31:20;;;;;;;0.93;0.40;;;15.20;99.90;;;;;;5118235;28;20470;-6
2023/12/25 09:33:46;;;;;;;0.73;0.60;;;15.20;99.90;;;;;;5097322;28;20599;-6
2023/12/25 09:36:11;;;;;;;1.57;0.43;;;15.10;99.90;;;;;;5073378;28;20550;-6
2023/12/25 09:38:37;;;;;;;0.53;0.50;;;15.10;99.90;;;;;;5073353;28;20310;-5
2023/12/25 09:41:12;;;;;;;0.60;0.50;;;15.20;99.90;;;;;;5073759;28;20257;-6
2023/12/25 09:43:39;;;;;;;0.50;0.50;;;15.10;99.90;;;;;;5074479;28;20171;-6
2023/12/25 09:46:06;;;;;;;2.20;0.50;;;15.10;99.90;;;;;;5073319;28;20252;-6
2023/12/25 09:48:35;;;;;;;1.00;0.60;;;15.10;99.90;;;;;;5072967;28;20207;-6
2023/12/25 09:51:03;;;;;;;0.60;0.50;;;15.10;99.90;;;;;;5076708;28;20563;-6
2023/12/25 09:53:29;;;;;;;0.57;0.50;;;15.10;99.90;;;;;;5077802;28;20726;-6
2023/12/25 09:56:03;;;;;;;0.50;0.50;;;15.10;99.90;;;;;;5076783;28;20179;-7
2023/12/25 09:58:29;;;;;;;0.73;0.70;;;15.10;99.90;;;;;;5077459;28;20181;-6
2023/12/25 10:00:56;;;;;;;1.47;0.60;;;15.10;99.90;;;;;;5077576;28;20644;-6
2023/12/25 10:03:23;;;;;;;0.50;0.50;;;15.10;99.90;;;;;;5076162;28;20178;-6
2023/12/25 10:05:49;;;;;;;0.67;0.47;;;15.10;99.90;;;;;;5077069;28;20197;-6
2023/12/25 10:08:14;;;;;;;1.20;0.43;;;15.10;99.90;;;;;;5077339;28;20168;-6
2023/12/25 10:10:42;;;;;;;0.40;0.40;;;15.10;99.90;;;;;;5077276;28;20152;-6
2023/12/25 10:13:10;;;;;;;0.90;0.70;;;15.20;99.90;;;;;;5076303;28;20153;-6
2023/12/25 10:15:35;;;;;;;0.50;0.50;;;15.20;99.90;;;;;;5076401;28;20171;-7
2023/12/25 10:18:06;;;;;;;2.10;0.60;;;15.20;99.90;;;;;;5077354;28;20323;-7
2023/12/25 10:20:32;;;;;;;1.70;0.90;;;15.20;99.90;;;;;;5077147;28;20183;-7
2023/12/25 10:22:59;;;;;;;0.50;0.50;;;15.20;99.90;;;;;;5077136;28;20164;-7
2023/12/25 10:25:29;;;;;;;0.50;0.50;;;15.20;99.90;;;;;;5077028;28;20589;-7
2023/12/25 10:27:55;;;;;;;1.70;0.50;;;15.20;99.90;;;;;;5075867;28;20245;-7
2023/12/25 10:30:24;;;;;;;0.73;0.60;;;15.20;99.90;;;;;;5077340;28;20167;-7
2023/12/25 10:33:08;;;;;;;0.47;0.47;;;15.20;99.90;;;;;;5077051;28;20186;-8
2023/12/25 10:35:34;;;;;;;1.50;0.60;;;15.20;99.90;;;;;;5077329;28;20182;-7
2023/12/25 10:38:07;;;;;;;2.50;0.50;;;15.20;99.90;;;;;;5076678;28;20179;-7
2023/12/25 10:40:38;;;;;;;1.13;0.47;;;15.20;99.90;;;;;;5077011;28;20153;-6
2023/12/25 10:43:04;;;;;;;0.63;0.50;;;15.20;99.90;;;;;;5076946;28;20235;-6
2023/12/25 10:45:30;;;;;;;2.97;0.67;;;15.20;99.90;;;;;;5076504;28;20180;-7
2023/12/25 10:48:05;;;;;;;1.47;0.50;;;15.20;99.90;;;;;;5075869;28;20201;-6
2023/12/25 10:50:38;;;;;;;2.27;0.70;;;15.20;99.90;;;;;;5076180;28;20463;-7
2023/12/25 10:53:05;;;;;;;1.40;0.80;;;15.20;99.90;;;;;;5076887;28;20552;-7
2023/12/25 10:55:37;;;;;;;4.20;0.87;;;15.20;99.90;;;;;;5075630;28;20177;-8
2023/12/25 10:58:11;;;;;;;2.20;1.10;;;15.20;99.90;;;;;;5076426;28;20261;-6
2023/12/25 11:00:49;;;;;;;3.20;1.07;;;15.20;99.90;;;;;;5076198;28;20171;-8
2023/12/25 11:03:16;;;;;;;1.67;1.07;;;15.20;99.90;;;;;;5076436;28;20589;-7
2023/12/25 11:05:42;;;;;;;3.97;1.30;;;15.20;99.90;;;;;;5076588;28;20173;-7
2023/12/25 11:08:08;;;;;;;1.60;1.13;;;15.20;99.90;;;;;;5076319;28;20213;-6
2023/12/25 11:10:35;;;;;;;3.77;1.40;;;15.20;99.90;;;;;;5077061;28;20161;-7
2023/12/25 11:13:01;;;;;;;3.30;1.30;;;15.20;99.90;;;;;;5076184;28;20273;-6
2023/12/25 11:15:37;;;;;;;10.07;2.20;;;15.30;99.90;;;;;;5076338;28;20634;-7
2023/12/25 11:18:05;;;;;;;8.07;1.53;;;15.30;99.90;;;;;;5076145;28;20644;-7
2023/12/25 11:20:31;;;;;;;3.33;1.37;;;15.30;99.90;;;;;;5074833;28;20168;-7
2023/12/25 11:22:57;;;;;;;5.50;1.40;;;15.30;99.90;;;;;;5075201;28;20184;-7
2023/12/25 11:25:28;;;;;;;3.93;1.40;;;15.30;99.90;;;;;;5076448;28;20197;-7
2023/12/25 11:27:55;;;;;;;2.87;1.40;;;15.30;99.90;;;;;;5076071;28;20290;-7
2023/12/25 11:30:25;;;;;;;2.07;1.20;;;15.30;99.90;;;;;;5075150;28;20627;-7
2023/12/25 11:32:54;;;;;;;4.53;1.30;;;15.30;99.90;;;;;;5076604;28;20199;-6
2023/12/25 11:35:38;;;;;;;3.83;1.33;;;15.30;99.90;;;;;;5075534;28;20710;-8
2023/12/25 11:38:19;;;;;;;4.17;1.37;;;15.30;99.90;;;;;;5076328;28;20255;-7
2023/12/25 11:40:46;;;;;;;3.57;1.30;;;15.30;99.90;;;;;;5076247;28;20186;-7
2023/12/25 11:43:24;;;;;;;2.60;1.30;;;15.20;99.90;;;;;;5076541;28;20185;-7
2023/12/25 11:45:53;;;;;;;3.60;1.40;;;15.20;99.90;;;;;;5075438;28;20209;-7
2023/12/25 11:48:18;;;;;;;2.57;1.27;;;15.30;99.90;;;;;;5075752;28;20175;-7
2023/12/25 11:50:45;;;;;;;3.30;1.53;;;15.30;99.90;;;;;;5075895;28;20173;-7
2023/12/25 11:53:36;;;;;;;1.33;1.17;;;15.30;99.90;;;;;;5076231;28;20176;-7
2023/12/25 11:56:02;;;;;;;2.30;1.37;;;15.30;99.90;;;;;;5065319;28;20185;-7
2023/12/25 11:58:30;;;;;;;3.20;1.80;;;15.30;99.90;;;;;;5075138;28;20182;-8
2023/12/25 12:00:57;;;;;;;4.67;1.73;;;15.30;99.90;;;;;;5075490;28;20185;-7
2023/12/25 12:03:23;;;;;;;3.53;1.73;;;15.30;99.90;;;;;;5078845;28;20207;-7
2023/12/25 12:05:49;;;;;;;3.60;1.50;;;15.30;99.90;;;;;;5079447;28;20190;-7
2023/12/25 12:08:15;;;;;;;2.87;1.60;;;15.40;99.90;;;;;;5078675;28;20292;-7
2023/12/25 12:10:42;;;;;;;2.87;1.37;;;15.40;99.90;;;;;;5078222;28;20225;-8
2023/12/25 12:13:11;;;;;;;4.00;1.23;;;15.40;99.90;;;;;;5078421;28;20458;-7
2023/12/25 12:15:37;;;;;;;3.83;1.53;;;15.40;99.90;;;;;;5079549;28;20161;-8
2023/12/25 12:18:03;;;;;;;2.17;1.20;;;15.50;99.90;;;;;;5079690;28;20582;-6
2023/12/25 12:20:29;;;;;;;1.07;1.00;;;15.50;99.90;;;;;;5079116;28;20270;-7
2023/12/25 12:22:55;;;;;;;1.90;1.30;;;15.50;99.90;;;;;;5078761;28;20194;-8
2023/12/25 12:25:37;;;;;;;1.97;1.30;;;15.50;99.90;;;;;;5078795;28;20716;-7
2023/12/25 12:28:04;;;;;;;1.87;1.20;;;15.50;99.90;;;;;;5078730;28;20741;-7
2023/12/25 12:30:31;;;;;;;1.10;1.00;;;15.50;99.90;;;;;;5079447;28;20172;-7
2023/12/25 12:32:57;;;;;;;2.57;1.03;;;15.50;99.90;;;;;;5079397;28;20451;-5
2023/12/25 12:35:29;;;;;;;0.97;0.93;;;15.50;99.90;;;;;;5078432;28;20179;-5
2023/12/25 12:37:55;;;;;;;1.90;1.20;;;15.50;99.90;;;;;;5077452;28;20172;-5
2023/12/25 12:40:23;;;;;;;1.80;1.00;;;15.50;99.90;;;;;;5077276;28;20648;-4
2023/12/25 12:42:51;;;;;;;2.13;1.13;;;15.50;99.90;;;;;;5078303;28;20180;-5
2023/12/25 12:45:16;;;;;;;2.20;1.23;;;15.50;99.90;;;;;;5078189;28;20206;-5
2023/12/25 12:47:42;;;;;;;2.70;1.03;;;15.50;99.90;;;;;;5078824;28;20245;-5
2023/12/25 12:50:08;;;;;;;2.17;1.30;;;15.50;99.90;;;;;;5078828;28;20181;-6
2023/12/25 12:52:35;;;;;;;0.90;0.90;;;15.50;99.90;;;;;;5077302;28;20177;-5
2023/12/25 12:55:10;;;;;;;2.47;0.90;;;15.50;99.90;;;;;;5077177;28;20456;-5